createdAt,value
2022-08-17T00:01:29.945Z,4.28
2022-08-17T00:03:59.218Z,4.00
2022-08-17T00:06:28.845Z,4.13
2022-08-17T00:09:00.776Z,4.30
2022-08-17T00:11:39.669Z,4.10
2022-08-17T00:14:11.887Z,4.07
2022-08-17T00:16:56.572Z,4.28
2022-08-17T00:19:25.469Z,3.97
2022-08-17T00:22:33.213Z,4.25
2022-08-17T00:24:42.892Z,3.88
2022-08-17T00:27:09.369Z,4.30
2022-08-17T00:29:35.806Z,3.80
2022-08-17T00:33:12.285Z,4.18
2022-08-17T00:34:49.737Z,4.30
2022-08-17T00:37:16.204Z,4.32
2022-08-17T00:39:42.679Z,4.18
2022-08-17T00:42:17.286Z,4.07
2022-08-17T00:44:43.755Z,4.05
2022-08-17T00:47:10.218Z,4.07
2022-08-17T00:49:36.650Z,4.55
2022-08-17T00:52:10.798Z,4.35
2022-08-17T00:54:41.816Z,4.53
2022-08-17T00:57:13.081Z,4.88
2022-08-17T00:59:46.019Z,4.60
2022-08-17T01:02:22.993Z,5.22
2022-08-17T01:04:51.306Z,5.15
2022-08-17T01:07:20.069Z,5.10
2022-08-17T01:09:46.517Z,5.15
2022-08-17T01:12:12.981Z,5.20
2022-08-17T01:14:39.836Z,5.45
2022-08-17T01:17:06.903Z,5.22
2022-08-17T01:19:36.921Z,5.72
2022-08-17T01:22:09.911Z,5.25
2022-08-17T01:24:38.875Z,5.88
2022-08-17T01:27:10.152Z,4.93
2022-08-17T01:29:38.986Z,5.32
2022-08-17T01:32:06.745Z,5.60
2022-08-17T01:34:43.448Z,5.78
2022-08-17T01:37:17.240Z,5.95
2022-08-17T01:39:48.363Z,5.88
2022-08-17T01:42:31.131Z,5.90
2022-08-17T01:44:59.227Z,5.75
2022-08-17T01:47:25.947Z,5.63
2022-08-17T01:49:52.389Z,6.32
2022-08-17T01:52:19.061Z,5.50
2022-08-17T01:54:47.293Z,6.18
2022-08-17T01:57:14.269Z,6.50
2022-08-17T01:59:40.737Z,5.97
2022-08-17T02:02:07.457Z,6.13
2022-08-17T02:04:34.378Z,6.47
2022-08-17T02:07:00.897Z,6.28
2022-08-17T02:09:29.766Z,6.15
2022-08-17T02:11:57.756Z,6.43
2022-08-17T02:14:24.900Z,5.90
2022-08-17T02:16:51.818Z,6.22
2022-08-17T02:19:18.380Z,6.55
2022-08-17T02:21:47.234Z,6.72
2022-08-17T02:25:00.288Z,6.85
2022-08-17T02:27:06.231Z,6.38
2022-08-17T02:29:32.803Z,6.25
2022-08-17T02:32:00.227Z,6.28
2022-08-17T02:34:27.465Z,6.85
2022-08-17T02:36:54.039Z,6.10
2022-08-17T02:39:20.466Z,6.45
2022-08-17T02:41:46.968Z,6.20
2022-08-17T02:44:13.517Z,6.57
2022-08-17T02:47:00.423Z,6.50
2022-08-17T02:49:26.874Z,6.47
2022-08-17T02:51:53.339Z,6.45
2022-08-17T02:54:39.931Z,6.63
2022-08-17T02:57:06.268Z,6.40
2022-08-17T02:59:32.712Z,7.15
2022-08-17T03:01:59.253Z,6.93
2022-08-17T03:04:25.768Z,6.70
2022-08-17T03:06:52.232Z,6.88
2022-08-17T03:09:18.675Z,6.90
2022-08-17T03:11:45.133Z,6.65
2022-08-17T03:14:12.437Z,5.75
2022-08-17T03:16:38.882Z,6.25
2022-08-17T03:19:05.742Z,6.47
2022-08-17T03:21:32.206Z,6.43
2022-08-17T03:23:58.689Z,6.47
2022-08-17T03:26:25.257Z,6.65
2022-08-17T03:28:56.132Z,6.68
2022-08-17T03:31:22.583Z,6.95
2022-08-17T03:33:49.140Z,7.20
2022-08-17T03:36:15.633Z,7.32
2022-08-17T03:38:42.085Z,6.85
2022-08-17T03:41:09.342Z,6.93
2022-08-17T03:43:35.778Z,6.65
2022-08-17T03:46:27.883Z,7.68
2022-08-17T03:49:20.418Z,7.22
2022-08-17T03:52:05.447Z,7.07
2022-08-17T03:54:50.648Z,7.03
2022-08-17T03:57:17.244Z,6.50
2022-08-17T03:59:45.055Z,7.60
2022-08-17T04:02:17.919Z,7.45
2022-08-17T04:04:44.458Z,7.60
2022-08-17T04:07:11.394Z,7.57
2022-08-17T04:09:37.868Z,7.55
2022-08-17T04:12:05.353Z,8.40
2022-08-17T04:14:39.277Z,8.63
2022-08-17T04:17:26.828Z,8.30
2022-08-17T04:19:53.855Z,7.85
2022-08-17T04:22:30.309Z,7.95
2022-08-17T04:24:58.060Z,7.53
2022-08-17T04:27:25.239Z,7.82
2022-08-17T04:29:55.591Z,8.02
2022-08-17T04:33:04.504Z,7.55
2022-08-17T04:35:09.693Z,7.05
2022-08-17T04:37:36.196Z,7.97
2022-08-17T04:40:21.820Z,8.25
2022-08-17T04:43:01.307Z,8.52
2022-08-17T04:45:32.404Z,7.88
2022-08-17T04:48:00.238Z,8.00
2022-08-17T04:50:27.129Z,8.45
2022-08-17T04:52:53.575Z,8.70
2022-08-17T04:55:20.118Z,8.10
2022-08-17T04:57:46.552Z,8.25
2022-08-17T05:00:13.319Z,8.20
2022-08-17T05:02:49.942Z,8.65
2022-08-17T05:05:25.458Z,8.60
2022-08-17T05:07:54.309Z,8.27
2022-08-17T05:10:25.923Z,8.20
2022-08-17T05:13:02.559Z,10.20
2022-08-17T05:15:29.723Z,9.15
2022-08-17T05:17:59.848Z,11.32
2022-08-17T05:20:26.686Z,10.60
2022-08-17T05:22:56.286Z,9.82
2022-08-17T05:25:29.618Z,10.75
2022-08-17T05:27:59.495Z,10.45
2022-08-17T05:30:28.580Z,11.48
2022-08-17T05:33:02.201Z,10.98
2022-08-17T05:35:31.447Z,11.30
2022-08-17T05:37:57.930Z,12.02
2022-08-17T05:40:25.837Z,11.32
2022-08-17T05:43:03.543Z,11.30
2022-08-17T05:45:54.221Z,10.30
2022-08-17T05:48:16.927Z,10.60
2022-08-17T05:51:03.731Z,11.05
2022-08-17T05:53:36.882Z,10.68
2022-08-17T05:56:56.231Z,10.40
2022-08-17T05:59:31.565Z,9.88
2022-08-17T06:02:35.562Z,9.85
2022-08-17T06:05:14.053Z,9.05
2022-08-17T06:08:05.207Z,9.52
2022-08-17T06:10:52.315Z,10.27
2022-08-17T06:13:57.928Z,11.55
2022-08-17T06:16:34.221Z,10.73
2022-08-17T06:19:16.138Z,10.35
2022-08-17T06:21:46.501Z,9.75
2022-08-17T06:24:37.922Z,9.43
2022-08-17T06:27:21.810Z,10.55
2022-08-17T06:30:11.619Z,10.48
2022-08-17T06:32:40.477Z,10.80
2022-08-17T06:35:09.036Z,10.52
2022-08-17T06:38:06.329Z,10.13
2022-08-17T06:41:14.112Z,9.98
2022-08-17T06:43:48.878Z,9.77
2022-08-17T06:46:22.352Z,10.00
2022-08-17T06:49:09.572Z,9.55
2022-08-17T06:51:40.745Z,10.20
2022-08-17T06:54:12.740Z,9.98
2022-08-17T06:56:53.547Z,9.85
2022-08-17T06:59:54.189Z,10.88
2022-08-17T07:02:52.631Z,10.98
2022-08-17T07:05:21.659Z,9.85
2022-08-17T07:08:01.722Z,9.57
2022-08-17T07:10:36.351Z,8.63
2022-08-17T07:13:18.122Z,9.38
2022-08-17T07:15:44.977Z,10.02
2022-08-17T07:18:11.460Z,8.10
2022-08-17T07:20:42.751Z,7.72
2022-08-17T07:23:21.020Z,7.85
2022-08-17T07:25:47.722Z,7.70
2022-08-17T07:28:20.430Z,7.57
2022-08-17T07:30:50.535Z,6.80
2022-08-17T07:33:25.815Z,7.90
2022-08-17T07:35:53.175Z,6.60
2022-08-17T07:38:25.913Z,7.78
2022-08-17T07:41:05.888Z,6.47
2022-08-17T07:43:35.976Z,6.88
2022-08-17T07:46:41.014Z,6.20
2022-08-17T07:49:10.373Z,7.00
2022-08-17T07:51:37.900Z,6.75
2022-08-17T07:54:32.289Z,5.97
2022-08-17T07:57:12.130Z,6.65
2022-08-17T07:59:58.545Z,5.45
2022-08-17T08:02:31.983Z,5.57
2022-08-17T08:05:12.814Z,6.18
2022-08-17T08:07:48.933Z,5.32
2022-08-17T08:10:25.178Z,5.35
2022-08-17T08:13:24.343Z,4.53
2022-08-17T08:15:54.614Z,4.78
2022-08-17T08:18:53.831Z,5.00
2022-08-17T08:21:29.064Z,4.65
2022-08-17T08:24:16.330Z,4.25
2022-08-17T08:26:50.682Z,3.97
2022-08-17T08:29:31.926Z,4.72
2022-08-17T08:32:21.045Z,4.35
2022-08-17T08:35:04.833Z,4.40
2022-08-17T08:37:42.478Z,4.05
2022-08-17T08:40:32.638Z,3.83
2022-08-17T08:43:19.153Z,3.80
2022-08-17T08:46:11.179Z,3.67
2022-08-17T08:48:58.670Z,3.72
2022-08-17T08:51:43.277Z,3.88
2022-08-17T08:54:36.321Z,3.50
2022-08-17T08:57:26.957Z,3.53
2022-08-17T09:00:15.202Z,3.90
2022-08-17T09:03:10.593Z,3.72
2022-08-17T09:05:56.223Z,3.83
2022-08-17T09:08:55.482Z,3.55
2022-08-17T09:11:35.365Z,3.97
2022-08-17T09:14:29.329Z,3.60
2022-08-17T09:17:13.742Z,3.15
2022-08-17T09:20:08.308Z,3.60
2022-08-17T09:22:42.661Z,3.95
2022-08-17T09:25:13.130Z,3.25
2022-08-17T09:28:00.731Z,3.58
2022-08-17T09:30:29.888Z,3.28
2022-08-17T09:33:00.074Z,2.95
2022-08-17T09:35:56.947Z,3.40
2022-08-17T09:38:46.783Z,3.17
2022-08-17T09:41:26.596Z,3.40
2022-08-17T09:43:59.154Z,3.00
2022-08-17T09:46:30.770Z,2.95
2022-08-17T09:49:07.501Z,3.25
2022-08-17T09:51:45.865Z,3.22
2022-08-17T09:54:42.527Z,3.35
2022-08-17T09:57:31.463Z,3.28
2022-08-17T10:00:09.782Z,2.90
2022-08-17T10:03:18.009Z,2.78
2022-08-17T10:05:59.686Z,2.88
2022-08-17T10:08:35.918Z,2.75
2022-08-17T10:11:08.369Z,2.90
2022-08-17T10:13:53.343Z,2.55
2022-08-17T10:16:23.118Z,2.95
2022-08-17T10:18:59.642Z,2.67
2022-08-17T10:21:44.723Z,2.80
2022-08-17T10:25:01.899Z,2.92
2022-08-17T10:27:43.649Z,2.40
2022-08-17T10:30:11.332Z,2.40
2022-08-17T10:32:49.486Z,2.53
2022-08-17T10:35:33.939Z,2.50
2022-08-17T10:38:06.680Z,2.38
2022-08-17T10:41:00.555Z,2.50
2022-08-17T10:43:29.366Z,2.58
2022-08-17T10:46:26.484Z,2.45
2022-08-17T10:49:11.607Z,2.60
2022-08-17T10:51:40.865Z,2.60
2022-08-17T10:54:59.349Z,2.30
2022-08-17T10:57:31.949Z,2.00
2022-08-17T11:00:00.190Z,2.15
2022-08-17T11:02:34.992Z,2.80
2022-08-17T11:05:09.190Z,2.40
2022-08-17T11:07:44.445Z,2.22
2022-08-17T11:10:24.830Z,2.70
2022-08-17T11:13:03.129Z,2.28
2022-08-17T11:15:59.941Z,2.45
2022-08-17T11:18:56.622Z,2.33
2022-08-17T11:21:40.748Z,2.42
2022-08-17T11:24:15.046Z,2.50
2022-08-17T11:26:47.459Z,2.58
2022-08-17T11:29:53.670Z,2.65
2022-08-17T11:32:32.722Z,2.47
2022-08-17T11:35:35.994Z,2.40
2022-08-17T11:38:26.369Z,2.35
2022-08-17T11:41:09.110Z,2.38
2022-08-17T11:44:07.102Z,2.40
2022-08-17T11:47:11.191Z,2.60
2022-08-17T11:50:27.700Z,2.30
2022-08-17T11:52:54.948Z,2.40
2022-08-17T11:55:37.496Z,2.30
2022-08-17T11:58:31.666Z,1.90
2022-08-17T12:01:00.759Z,2.55
2022-08-17T12:03:39.148Z,2.40
2022-08-17T12:06:07.453Z,2.38
2022-08-17T12:08:41.694Z,2.55
2022-08-17T12:11:18.867Z,2.22
2022-08-17T12:14:06.437Z,2.17
2022-08-17T12:16:32.940Z,2.78
2022-08-17T12:19:02.424Z,2.50
2022-08-17T12:21:48.609Z,2.35
2022-08-17T12:24:25.477Z,2.30
2022-08-17T12:26:55.429Z,2.92
2022-08-17T12:29:35.418Z,2.28
2022-08-17T12:32:06.757Z,2.58
2022-08-17T12:34:41.788Z,2.40
2022-08-17T12:37:15.181Z,2.28
2022-08-17T12:40:14.825Z,2.75
2022-08-17T12:42:41.518Z,2.42
2022-08-17T12:45:22.596Z,2.35
2022-08-17T12:47:49.380Z,2.38
2022-08-17T12:50:29.159Z,2.50
2022-08-17T12:53:01.662Z,2.50
2022-08-17T12:55:33.126Z,2.58
2022-08-17T12:58:02.091Z,2.40
2022-08-17T13:00:32.673Z,2.47
2022-08-17T13:03:07.737Z,2.47
2022-08-17T13:05:59.642Z,3.13
2022-08-17T13:08:44.411Z,2.60
2022-08-17T13:11:13.808Z,2.58
2022-08-17T13:13:42.740Z,2.85
2022-08-17T13:16:18.714Z,2.95
2022-08-17T13:18:47.980Z,2.55
2022-08-17T13:21:30.624Z,3.03
2022-08-17T13:24:01.051Z,2.50
2022-08-17T13:26:40.747Z,2.67
2022-08-17T13:29:17.260Z,2.92
2022-08-17T13:31:52.367Z,2.50
2022-08-17T13:34:26.837Z,2.50
2022-08-17T13:37:26.975Z,2.45
2022-08-17T13:39:55.976Z,2.35
2022-08-17T13:42:33.659Z,2.80
2022-08-17T13:45:36.858Z,2.80
2022-08-17T13:48:16.985Z,2.58
2022-08-17T13:51:06.737Z,2.65
2022-08-17T13:53:33.207Z,2.50
2022-08-17T13:56:07.446Z,2.40
2022-08-17T13:58:56.392Z,2.80
2022-08-17T14:01:36.630Z,2.33
2022-08-17T14:04:15.580Z,2.70
2022-08-17T14:06:52.058Z,2.80
2022-08-17T14:09:22.554Z,2.40
2022-08-17T14:11:49.320Z,2.20
2022-08-17T14:14:16.710Z,2.60
2022-08-17T14:16:43.288Z,2.50
2022-08-17T14:19:12.629Z,2.53
2022-08-17T14:21:44.307Z,2.08
2022-08-17T14:24:20.492Z,2.42
2022-08-17T14:26:47.347Z,2.72
2022-08-17T14:29:15.346Z,2.35
2022-08-17T14:31:42.151Z,2.25
2022-08-17T14:34:12.483Z,2.40
2022-08-17T14:36:41.847Z,2.67
2022-08-17T14:39:15.781Z,2.47
2022-08-17T14:41:42.566Z,2.28
2022-08-17T14:44:12.986Z,2.47
2022-08-17T14:46:40.811Z,2.33
2022-08-17T14:49:08.298Z,2.10
2022-08-17T14:51:36.487Z,2.30
2022-08-17T14:54:10.088Z,2.30
2022-08-17T14:56:38.046Z,2.30
2022-08-17T14:59:04.953Z,1.77
2022-08-17T15:01:31.649Z,2.22
2022-08-17T15:03:58.126Z,2.20
2022-08-17T15:06:24.783Z,2.53
2022-08-17T15:08:51.433Z,2.30
2022-08-17T15:11:18.248Z,2.00
2022-08-17T15:13:52.091Z,1.98
2022-08-17T15:16:20.447Z,2.20
2022-08-17T15:18:46.913Z,2.22
2022-08-17T15:21:14.824Z,2.30
2022-08-17T15:23:41.524Z,2.28
2022-08-17T15:26:10.880Z,2.30
2022-08-17T15:28:37.734Z,2.35
2022-08-17T15:31:05.713Z,2.35
2022-08-17T15:33:32.563Z,2.35
2022-08-17T15:36:00.865Z,2.35
2022-08-17T15:38:27.981Z,2.33
2022-08-17T15:40:55.340Z,2.10
2022-08-17T15:43:27.741Z,2.28
2022-08-17T15:46:02.267Z,2.55
2022-08-17T15:48:41.376Z,2.40
2022-08-17T15:51:20.213Z,2.30
2022-08-17T15:53:53.393Z,2.40
2022-08-17T15:56:20.217Z,2.42
2022-08-17T15:58:47.915Z,2.47
2022-08-17T16:01:31.346Z,2.13
2022-08-17T16:04:06.651Z,2.03
2022-08-17T16:06:34.465Z,2.30
2022-08-17T16:09:00.900Z,2.40
2022-08-17T16:11:27.399Z,2.05
2022-08-17T16:13:54.959Z,2.22
2022-08-17T16:16:23.589Z,2.30
2022-08-17T16:18:54.659Z,2.67
2022-08-17T16:21:26.108Z,2.33
2022-08-17T16:24:06.817Z,2.10
2022-08-17T16:26:39.912Z,2.40
2022-08-17T16:29:06.640Z,1.98
2022-08-17T16:31:35.910Z,2.10
2022-08-17T16:34:15.735Z,2.05
2022-08-17T16:36:53.627Z,2.20
2022-08-17T16:39:26.948Z,2.33
2022-08-17T16:41:53.513Z,2.22
2022-08-17T16:44:21.606Z,2.33
2022-08-17T16:46:48.590Z,2.25
2022-08-17T16:49:35.865Z,2.47
2022-08-17T16:52:05.202Z,2.50
2022-08-17T16:54:31.847Z,2.30
2022-08-17T16:56:58.293Z,2.25
2022-08-17T16:59:38.691Z,2.53
2022-08-17T17:02:10.975Z,2.42
2022-08-17T17:04:53.510Z,2.20
2022-08-17T17:07:33.866Z,2.20
2022-08-17T17:10:24.841Z,2.58
2022-08-17T17:13:02.408Z,2.67
2022-08-17T17:15:47.635Z,2.63
2022-08-17T17:18:15.823Z,2.30
2022-08-17T17:20:52.242Z,2.45
2022-08-17T17:23:30.296Z,2.20
2022-08-17T17:26:22.728Z,2.45
2022-08-17T17:29:00.928Z,2.38
2022-08-17T17:31:33.662Z,2.72
2022-08-17T17:34:03.927Z,2.53
2022-08-17T17:36:42.111Z,2.40
2022-08-17T17:39:31.836Z,2.30
2022-08-17T17:41:59.593Z,2.40
2022-08-17T17:44:30.047Z,2.70
2022-08-17T17:46:59.099Z,2.58
2022-08-17T17:49:33.269Z,2.65
2022-08-17T17:52:18.424Z,2.75
2022-08-17T17:54:58.263Z,2.60
2022-08-17T17:57:42.045Z,3.38
2022-08-17T18:00:13.244Z,3.58
2022-08-17T18:03:01.656Z,3.03
2022-08-17T18:05:37.125Z,3.00
2022-08-17T18:08:34.107Z,3.08
2022-08-17T18:11:37.068Z,3.00
2022-08-17T18:14:18.771Z,2.60
2022-08-17T18:16:46.329Z,2.80
2022-08-17T18:19:14.539Z,3.00
2022-08-17T18:21:46.347Z,2.92
2022-08-17T18:24:13.673Z,3.05
2022-08-17T18:26:43.790Z,2.75
2022-08-17T18:29:35.714Z,2.70
2022-08-17T18:32:19.742Z,2.50
2022-08-17T18:34:48.968Z,2.70
2022-08-17T18:37:39.721Z,2.90
2022-08-17T18:40:19.358Z,2.97
2022-08-17T18:42:57.887Z,2.80
2022-08-17T18:45:49.417Z,3.05
2022-08-17T18:48:26.932Z,3.25
2022-08-17T18:50:57.347Z,2.92
2022-08-17T18:53:34.044Z,3.03
2022-08-17T18:56:16.202Z,3.00
2022-08-17T18:58:42.796Z,2.90
2022-08-17T19:01:19.725Z,2.78
2022-08-17T19:03:46.493Z,2.60
2022-08-17T19:06:24.130Z,2.92
2022-08-17T19:08:50.602Z,2.65
2022-08-17T19:11:22.106Z,2.88
2022-08-17T19:13:55.613Z,2.85
2022-08-17T19:16:49.033Z,2.85
2022-08-17T19:19:26.763Z,3.28
2022-08-17T19:21:58.997Z,3.10
2022-08-17T19:24:27.485Z,3.05
2022-08-17T19:27:19.782Z,2.90
2022-08-17T19:30:08.465Z,2.80
2022-08-17T19:32:35.715Z,3.25
2022-08-17T19:35:04.692Z,3.15
2022-08-17T19:38:03.785Z,3.60
2022-08-17T19:40:52.793Z,3.80
2022-08-17T19:43:30.913Z,3.60
2022-08-17T19:46:07.110Z,3.90
2022-08-17T19:48:52.748Z,3.70
2022-08-17T19:51:44.660Z,3.78
2022-08-17T19:54:20.361Z,3.58
2022-08-17T19:56:56.594Z,3.55
2022-08-17T19:59:38.337Z,3.60
2022-08-17T20:02:23.704Z,3.67
2022-08-17T20:04:50.964Z,3.60
2022-08-17T20:07:21.984Z,3.80
2022-08-17T20:09:54.527Z,3.67
2022-08-17T20:12:24.358Z,3.78
2022-08-17T20:14:55.957Z,3.45
2022-08-17T20:17:25.018Z,3.38
2022-08-17T20:20:07.524Z,3.60
2022-08-17T20:23:13.235Z,2.90
2022-08-17T20:26:07.905Z,2.58
2022-08-17T20:28:38.893Z,2.78
2022-08-17T20:31:44.623Z,2.80
2022-08-17T20:34:33.448Z,2.88
2022-08-17T20:37:05.876Z,3.35
2022-08-17T20:39:57.046Z,2.95
2022-08-17T20:42:23.487Z,3.20
2022-08-17T20:44:53.727Z,2.90
2022-08-17T20:47:33.872Z,2.90
2022-08-17T20:50:06.938Z,8.93
2022-08-17T20:52:56.075Z,5.45
2022-08-17T20:55:51.557Z,5.15
2022-08-17T20:58:36.976Z,7.40
2022-08-17T21:01:19.883Z,3.80
2022-08-17T21:03:51.236Z,4.13
2022-08-17T21:06:20.626Z,6.60
2022-08-17T21:08:53.873Z,4.38
2022-08-17T21:12:00.027Z,5.53
2022-08-17T21:14:41.698Z,7.53
2022-08-17T21:17:22.113Z,5.25
2022-08-17T21:20:10.754Z,5.38
2022-08-17T21:23:00.432Z,4.20
2022-08-17T21:25:34.855Z,4.57
2022-08-17T21:28:18.011Z,8.35
2022-08-17T21:30:51.193Z,4.95
2022-08-17T21:33:27.062Z,4.40
2022-08-17T21:35:59.511Z,4.18
2022-08-17T21:38:36.482Z,4.70
2022-08-17T21:41:02.953Z,4.88
2022-08-17T21:43:33.463Z,4.18
2022-08-17T21:46:05.726Z,3.00
2022-08-17T21:48:42.058Z,3.10
2022-08-17T21:51:12.832Z,3.10
2022-08-17T21:53:42.271Z,3.17
2022-08-17T21:56:10.394Z,3.20
2022-08-17T21:58:48.321Z,3.10
2022-08-17T22:01:25.810Z,3.10
2022-08-17T22:04:16.775Z,3.30
2022-08-17T22:06:56.858Z,3.42
2022-08-17T22:09:45.271Z,3.30
2022-08-17T22:12:16.195Z,3.10
2022-08-17T22:14:56.376Z,3.25
2022-08-17T22:17:27.771Z,3.25
2022-08-17T22:20:17.485Z,3.10
2022-08-17T22:23:08.764Z,3.10
2022-08-17T22:25:38.594Z,3.20
2022-08-17T22:28:09.823Z,3.08
2022-08-17T22:30:46.861Z,3.40
2022-08-17T22:33:40.266Z,3.15
2022-08-17T22:36:28.949Z,3.20
2022-08-17T22:39:26.083Z,3.30
2022-08-17T22:42:02.299Z,3.20
2022-08-17T22:44:37.696Z,3.25
2022-08-17T22:47:26.632Z,3.70
2022-08-17T22:49:57.614Z,4.22
2022-08-17T22:52:56.885Z,3.65
2022-08-17T22:55:42.110Z,4.63
2022-08-17T22:58:32.196Z,3.38
2022-08-17T23:01:24.716Z,4.13
2022-08-17T23:03:54.844Z,3.95
2022-08-17T23:06:21.276Z,3.80
2022-08-17T23:08:54.421Z,3.63
2022-08-17T23:11:36.774Z,3.80
2022-08-17T23:14:13.311Z,3.50
2022-08-17T23:16:43.051Z,4.18
2022-08-17T23:19:10.892Z,3.72
2022-08-17T23:21:37.470Z,3.92
2022-08-17T23:24:09.006Z,3.47
2022-08-17T23:26:37.984Z,3.75
2022-08-17T23:29:06.614Z,3.63
2022-08-17T23:31:34.695Z,2.92
2022-08-17T23:34:01.784Z,3.75
2022-08-17T23:36:28.391Z,3.80
2022-08-17T23:38:54.964Z,3.58
2022-08-17T23:41:23.538Z,3.63
2022-08-17T23:43:52.117Z,3.33
2022-08-17T23:46:24.483Z,4.22
2022-08-17T23:48:53.312Z,3.78
2022-08-17T23:51:54.648Z,3.70
2022-08-17T23:54:28.424Z,3.75
2022-08-17T23:56:55.028Z,3.90
2022-08-17T23:59:22.769Z,4.10
